sensor_id;sensor_type;location;lat;lon;timestamp;temperature;humidity
38910;DHT22;24676;51.360;12.354;2023-02-03T00:00:00;2.80;99.90
38910;DHT22;24676;51.360;12.354;2023-02-03T00:02:45;2.80;99.90
38910;DHT22;24676;51.360;12.354;2023-02-03T00:05:30;2.80;99.90
38910;DHT22;24676;51.360;12.354;2023-02-03T00:08:16;2.80;99.90
38910;DHT22;24676;51.360;12.354;2023-02-03T00:11:01;2.80;99.90
38910;DHT22;24676;51.360;12.354;2023-02-03T00:13:45;2.80;99.90
38910;DHT22;24676;51.360;12.354;2023-02-03T00:16:30;2.80;99.90
38910;DHT22;24676;51.360;12.354;2023-02-03T00:19:15;2.80;99.90
38910;DHT22;24676;51.360;12.354;2023-02-03T00:21:59;2.80;99.90
38910;DHT22;24676;51.360;12.354;2023-02-03T00:24:43;2.80;99.90
38910;DHT22;24676;51.360;12.354;2023-02-03T00:27:27;2.80;99.90
38910;DHT22;24676;51.360;12.354;2023-02-03T00:30:12;2.80;99.90
38910;DHT22;24676;51.360;12.354;2023-02-03T00:32:56;2.80;99.90
38910;DHT22;24676;51.360;12.354;2023-02-03T00:35:40;2.80;99.90
38910;DHT22;24676;51.360;12.354;2023-02-03T00:38:28;2.80;99.90
38910;DHT22;24676;51.360;12.354;2023-02-03T00:41:12;2.80;99.90
38910;DHT22;24676;51.360;12.354;2023-02-03T00:43:57;2.80;99.90
38910;DHT22;24676;51.360;12.354;2023-02-03T00:46:41;2.80;99.90
38910;DHT22;24676;51.360;12.354;2023-02-03T00:49:26;2.80;99.90
38910;DHT22;24676;51.360;12.354;2023-02-03T00:52:10;2.80;99.90
38910;DHT22;24676;51.360;12.354;2023-02-03T00:54:54;2.90;99.90
38910;DHT22;24676;51.360;12.354;2023-02-03T00:57:39;2.80;99.90
38910;DHT22;24676;51.360;12.354;2023-02-03T01:00:23;2.90;99.90
38910;DHT22;24676;51.360;12.354;2023-02-03T01:03:08;2.80;99.90
38910;DHT22;24676;51.360;12.354;2023-02-03T01:05:53;2.80;99.90
38910;DHT22;24676;51.360;12.354;2023-02-03T01:08:37;2.90;99.90
38910;DHT22;24676;51.360;12.354;2023-02-03T01:11:24;2.90;99.90
38910;DHT22;24676;51.360;12.354;2023-02-03T01:14:09;2.90;99.90
38910;DHT22;24676;51.360;12.354;2023-02-03T01:16:54;2.80;99.90
38910;DHT22;24676;51.360;12.354;2023-02-03T01:19:38;2.90;99.90
38910;DHT22;24676;51.360;12.354;2023-02-03T01:22:23;2.90;99.90
38910;DHT22;24676;51.360;12.354;2023-02-03T01:25:07;2.90;99.90
38910;DHT22;24676;51.360;12.354;2023-02-03T01:27:52;2.90;99.90
38910;DHT22;24676;51.360;12.354;2023-02-03T01:30:36;2.90;99.90
38910;DHT22;24676;51.360;12.354;2023-02-03T01:33:20;2.90;99.90
38910;DHT22;24676;51.360;12.354;2023-02-03T01:36:05;3.00;99.90
38910;DHT22;24676;51.360;12.354;2023-02-03T01:38:49;3.00;99.90
38910;DHT22;24676;51.360;12.354;2023-02-03T01:41:36;3.00;99.90
38910;DHT22;24676;51.360;12.354;2023-02-03T01:47:28;3.00;99.90
38910;DHT22;24676;51.360;12.354;2023-02-03T01:53:06;3.10;99.90
38910;DHT22;24676;51.360;12.354;2023-02-03T01:55:51;3.10;99.90
38910;DHT22;24676;51.360;12.354;2023-02-03T01:58:38;3.10;99.90
38910;DHT22;24676;51.360;12.354;2023-02-03T02:01:24;3.10;99.90
38910;DHT22;24676;51.360;12.354;2023-02-03T02:04:08;3.20;99.90
38910;DHT22;24676;51.360;12.354;2023-02-03T02:06:55;3.20;99.90
38910;DHT22;24676;51.360;12.354;2023-02-03T02:09:40;3.20;99.90
38910;DHT22;24676;51.360;12.354;2023-02-03T02:12:25;3.20;99.90
38910;DHT22;24676;51.360;12.354;2023-02-03T02:15:09;3.30;99.90
38910;DHT22;24676;51.360;12.354;2023-02-03T02:21:16;3.40;99.90
38910;DHT22;24676;51.360;12.354;2023-02-03T02:24:24;3.30;99.90
38910;DHT22;24676;51.360;12.354;2023-02-03T02:27:17;3.40;99.90
38910;DHT22;24676;51.360;12.354;2023-02-03T02:33:01;3.50;99.90
38910;DHT22;24676;51.360;12.354;2023-02-03T02:38:58;3.60;99.90
38910;DHT22;24676;51.360;12.354;2023-02-03T02:41:59;3.70;99.90
38910;DHT22;24676;51.360;12.354;2023-02-03T02:44:55;3.70;99.90
38910;DHT22;24676;51.360;12.354;2023-02-03T02:47:42;3.80;99.90
38910;DHT22;24676;51.360;12.354;2023-02-03T02:50:30;3.90;99.90
38910;DHT22;24676;51.360;12.354;2023-02-03T02:53:20;4.00;99.90
38910;DHT22;24676;51.360;12.354;2023-02-03T02:56:07;4.10;99.90
38910;DHT22;24676;51.360;12.354;2023-02-03T02:58:53;4.20;99.90
38910;DHT22;24676;51.360;12.354;2023-02-03T03:01:39;4.20;99.90
38910;DHT22;24676;51.360;12.354;2023-02-03T03:04:24;4.30;99.90
38910;DHT22;24676;51.360;12.354;2023-02-03T03:07:10;4.40;99.90
38910;DHT22;24676;51.360;12.354;2023-02-03T03:10:00;4.40;99.90
38910;DHT22;24676;51.360;12.354;2023-02-03T03:12:49;4.50;99.90
38910;DHT22;24676;51.360;12.354;2023-02-03T03:15:35;4.60;99.90
38910;DHT22;24676;51.360;12.354;2023-02-03T03:18:26;4.70;99.90
38910;DHT22;24676;51.360;12.354;2023-02-03T03:21:16;4.70;99.90
38910;DHT22;24676;51.360;12.354;2023-02-03T03:24:08;4.80;99.90
38910;DHT22;24676;51.360;12.354;2023-02-03T03:26:59;4.90;99.90
38910;DHT22;24676;51.360;12.354;2023-02-03T03:32:30;5.00;99.90
38910;DHT22;24676;51.360;12.354;2023-02-03T03:35:16;5.10;99.90
38910;DHT22;24676;51.360;12.354;2023-02-03T03:38:13;5.10;99.90
38910;DHT22;24676;51.360;12.354;2023-02-03T03:41:59;5.20;99.90
38910;DHT22;24676;51.360;12.354;2023-02-03T03:44:26;5.20;99.90
38910;DHT22;24676;51.360;12.354;2023-02-03T03:47:17;5.20;99.90
38910;DHT22;24676;51.360;12.354;2023-02-03T03:50:06;5.30;99.90
38910;DHT22;24676;51.360;12.354;2023-02-03T03:52:52;5.30;99.90
38910;DHT22;24676;51.360;12.354;2023-02-03T03:55:37;5.30;99.90
38910;DHT22;24676;51.360;12.354;2023-02-03T03:58:25;5.30;99.90
38910;DHT22;24676;51.360;12.354;2023-02-03T04:01:10;5.30;99.90
38910;DHT22;24676;51.360;12.354;2023-02-03T04:03:57;5.30;99.90
38910;DHT22;24676;51.360;12.354;2023-02-03T04:06:42;5.30;99.90
38910;DHT22;24676;51.360;12.354;2023-02-03T04:09:26;5.40;99.90
38910;DHT22;24676;51.360;12.354;2023-02-03T04:12:20;5.40;99.90
38910;DHT22;24676;51.360;12.354;2023-02-03T04:15:05;5.40;99.90
38910;DHT22;24676;51.360;12.354;2023-02-03T04:17:49;5.50;99.90
38910;DHT22;24676;51.360;12.354;2023-02-03T04:20:33;5.50;99.90
38910;DHT22;24676;51.360;12.354;2023-02-03T04:23:17;5.60;99.90
38910;DHT22;24676;51.360;12.354;2023-02-03T04:26:02;5.60;99.90
38910;DHT22;24676;51.360;12.354;2023-02-03T04:28:46;5.70;99.90
38910;DHT22;24676;51.360;12.354;2023-02-03T04:31:30;5.80;99.90
38910;DHT22;24676;51.360;12.354;2023-02-03T04:34:14;5.80;99.90
38910;DHT22;24676;51.360;12.354;2023-02-03T04:36:58;5.90;99.90
38910;DHT22;24676;51.360;12.354;2023-02-03T04:39:42;5.90;99.90
38910;DHT22;24676;51.360;12.354;2023-02-03T04:42:27;5.90;99.90
38910;DHT22;24676;51.360;12.354;2023-02-03T04:45:11;5.90;99.90
38910;DHT22;24676;51.360;12.354;2023-02-03T04:47:55;6.00;99.90
38910;DHT22;24676;51.360;12.354;2023-02-03T04:50:39;6.10;99.90
38910;DHT22;24676;51.360;12.354;2023-02-03T04:53:23;6.10;99.90
38910;DHT22;24676;51.360;12.354;2023-02-03T04:56:07;6.10;99.90
38910;DHT22;24676;51.360;12.354;2023-02-03T04:58:52;6.20;99.90
38910;DHT22;24676;51.360;12.354;2023-02-03T05:01:36;6.20;99.90
38910;DHT22;24676;51.360;12.354;2023-02-03T05:04:20;6.30;99.90
38910;DHT22;24676;51.360;12.354;2023-02-03T05:07:04;6.30;99.90
38910;DHT22;24676;51.360;12.354;2023-02-03T05:09:48;6.40;99.90
38910;DHT22;24676;51.360;12.354;2023-02-03T05:12:32;6.40;99.90
38910;DHT22;24676;51.360;12.354;2023-02-03T05:15:17;6.40;99.90
38910;DHT22;24676;51.360;12.354;2023-02-03T05:18:01;6.40;99.90
38910;DHT22;24676;51.360;12.354;2023-02-03T05:20:45;6.40;99.90
38910;DHT22;24676;51.360;12.354;2023-02-03T05:23:29;6.40;99.90
38910;DHT22;24676;51.360;12.354;2023-02-03T05:26:13;6.40;99.90
38910;DHT22;24676;51.360;12.354;2023-02-03T05:28:58;6.40;99.90
38910;DHT22;24676;51.360;12.354;2023-02-03T05:31:42;6.40;99.90
38910;DHT22;24676;51.360;12.354;2023-02-03T05:34:26;6.40;99.90
38910;DHT22;24676;51.360;12.354;2023-02-03T05:37:10;6.40;99.90
38910;DHT22;24676;51.360;12.354;2023-02-03T05:39:54;6.40;99.90
38910;DHT22;24676;51.360;12.354;2023-02-03T05:42:58;6.50;99.90
38910;DHT22;24676;51.360;12.354;2023-02-03T05:45:43;6.50;99.90
38910;DHT22;24676;51.360;12.354;2023-02-03T05:48:27;6.50;99.90
38910;DHT22;24676;51.360;12.354;2023-02-03T05:51:11;6.50;99.90
38910;DHT22;24676;51.360;12.354;2023-02-03T05:53:55;6.50;99.90
38910;DHT22;24676;51.360;12.354;2023-02-03T05:56:39;6.50;99.90
38910;DHT22;24676;51.360;12.354;2023-02-03T05:59:24;6.50;99.90
38910;DHT22;24676;51.360;12.354;2023-02-03T06:02:08;6.60;99.90
38910;DHT22;24676;51.360;12.354;2023-02-03T06:04:52;6.60;99.90
38910;DHT22;24676;51.360;12.354;2023-02-03T06:07:36;6.60;99.90
38910;DHT22;24676;51.360;12.354;2023-02-03T06:10:21;6.60;99.90
38910;DHT22;24676;51.360;12.354;2023-02-03T06:13:12;6.60;99.90
38910;DHT22;24676;51.360;12.354;2023-02-03T06:15:56;6.60;99.90
38910;DHT22;24676;51.360;12.354;2023-02-03T06:18:40;6.60;99.90
38910;DHT22;24676;51.360;12.354;2023-02-03T06:21:25;6.60;99.90
38910;DHT22;24676;51.360;12.354;2023-02-03T06:24:10;6.60;99.90
38910;DHT22;24676;51.360;12.354;2023-02-03T06:26:54;6.70;99.90
38910;DHT22;24676;51.360;12.354;2023-02-03T06:29:38;6.70;99.90
38910;DHT22;24676;51.360;12.354;2023-02-03T06:32:22;6.70;99.90
38910;DHT22;24676;51.360;12.354;2023-02-03T06:35:06;6.70;99.90
38910;DHT22;24676;51.360;12.354;2023-02-03T06:37:50;6.60;99.90
38910;DHT22;24676;51.360;12.354;2023-02-03T06:40:35;6.60;99.90
38910;DHT22;24676;51.360;12.354;2023-02-03T06:43:19;6.60;99.90
38910;DHT22;24676;51.360;12.354;2023-02-03T06:46:03;6.60;99.90
38910;DHT22;24676;51.360;12.354;2023-02-03T06:48:47;6.70;99.90
38910;DHT22;24676;51.360;12.354;2023-02-03T06:51:31;6.60;99.90
38910;DHT22;24676;51.360;12.354;2023-02-03T06:54:15;6.70;99.90
38910;DHT22;24676;51.360;12.354;2023-02-03T06:57:01;6.70;99.90
38910;DHT22;24676;51.360;12.354;2023-02-03T06:59:45;6.70;99.90
38910;DHT22;24676;51.360;12.354;2023-02-03T07:02:29;6.70;99.90
38910;DHT22;24676;51.360;12.354;2023-02-03T07:05:13;6.70;99.90
38910;DHT22;24676;51.360;12.354;2023-02-03T07:07:57;6.80;99.90
38910;DHT22;24676;51.360;12.354;2023-02-03T07:10:42;6.80;99.90
38910;DHT22;24676;51.360;12.354;2023-02-03T07:13:26;6.80;99.90
38910;DHT22;24676;51.360;12.354;2023-02-03T07:16:10;6.80;99.90
38910;DHT22;24676;51.360;12.354;2023-02-03T07:18:54;6.90;99.90
38910;DHT22;24676;51.360;12.354;2023-02-03T07:21:38;6.90;99.90
38910;DHT22;24676;51.360;12.354;2023-02-03T07:24:23;6.90;99.90
38910;DHT22;24676;51.360;12.354;2023-02-03T07:27:07;7.00;99.90
38910;DHT22;24676;51.360;12.354;2023-02-03T07:29:51;7.10;99.90
38910;DHT22;24676;51.360;12.354;2023-02-03T07:32:35;7.10;99.90
38910;DHT22;24676;51.360;12.354;2023-02-03T07:35:19;7.20;99.90
38910;DHT22;24676;51.360;12.354;2023-02-03T07:38:03;7.20;99.90
38910;DHT22;24676;51.360;12.354;2023-02-03T07:40:48;7.30;99.90
38910;DHT22;24676;51.360;12.354;2023-02-03T07:43:32;7.30;99.90
38910;DHT22;24676;51.360;12.354;2023-02-03T07:46:16;7.40;99.90
38910;DHT22;24676;51.360;12.354;2023-02-03T07:49:00;7.40;99.90
38910;DHT22;24676;51.360;12.354;2023-02-03T07:51:47;7.40;99.90
38910;DHT22;24676;51.360;12.354;2023-02-03T07:54:31;7.40;99.90
38910;DHT22;24676;51.360;12.354;2023-02-03T07:57:15;7.40;99.90
38910;DHT22;24676;51.360;12.354;2023-02-03T07:59:59;7.50;99.90
38910;DHT22;24676;51.360;12.354;2023-02-03T08:02:43;7.40;99.90
38910;DHT22;24676;51.360;12.354;2023-02-03T08:05:28;7.40;99.90
38910;DHT22;24676;51.360;12.354;2023-02-03T08:08:13;7.40;99.90
38910;DHT22;24676;51.360;12.354;2023-02-03T08:10:57;7.40;99.90
38910;DHT22;24676;51.360;12.354;2023-02-03T08:13:41;7.40;99.90
38910;DHT22;24676;51.360;12.354;2023-02-03T08:16:25;7.40;99.90
38910;DHT22;24676;51.360;12.354;2023-02-03T08:19:09;7.30;99.90
38910;DHT22;24676;51.360;12.354;2023-02-03T08:21:53;7.30;99.90
38910;DHT22;24676;51.360;12.354;2023-02-03T08:24:38;7.40;99.90
38910;DHT22;24676;51.360;12.354;2023-02-03T08:27:22;7.40;99.90
38910;DHT22;24676;51.360;12.354;2023-02-03T08:30:07;7.40;99.90
38910;DHT22;24676;51.360;12.354;2023-02-03T08:32:52;7.40;99.90
38910;DHT22;24676;51.360;12.354;2023-02-03T08:35:36;7.40;99.90
38910;DHT22;24676;51.360;12.354;2023-02-03T08:38:22;7.40;99.90
38910;DHT22;24676;51.360;12.354;2023-02-03T08:41:10;7.40;99.90
38910;DHT22;24676;51.360;12.354;2023-02-03T08:43:55;7.40;99.90
38910;DHT22;24676;51.360;12.354;2023-02-03T08:46:39;7.40;99.90
38910;DHT22;24676;51.360;12.354;2023-02-03T08:49:27;7.40;99.90
38910;DHT22;24676;51.360;12.354;2023-02-03T08:52:12;7.50;99.90
38910;DHT22;24676;51.360;12.354;2023-02-03T08:54:56;7.50;99.90
38910;DHT22;24676;51.360;12.354;2023-02-03T08:57:41;7.50;99.90
38910;DHT22;24676;51.360;12.354;2023-02-03T09:00:25;7.50;99.90
38910;DHT22;24676;51.360;12.354;2023-02-03T09:03:09;7.60;99.90
38910;DHT22;24676;51.360;12.354;2023-02-03T09:05:53;7.60;99.90
38910;DHT22;24676;51.360;12.354;2023-02-03T09:08:37;7.70;99.90
38910;DHT22;24676;51.360;12.354;2023-02-03T09:11:22;7.70;99.90
38910;DHT22;24676;51.360;12.354;2023-02-03T09:14:06;7.80;99.90
38910;DHT22;24676;51.360;12.354;2023-02-03T09:16:50;7.80;99.90
38910;DHT22;24676;51.360;12.354;2023-02-03T09:19:35;7.90;99.90
38910;DHT22;24676;51.360;12.354;2023-02-03T09:22:19;7.90;99.90
38910;DHT22;24676;51.360;12.354;2023-02-03T09:25:05;8.00;99.90
38910;DHT22;24676;51.360;12.354;2023-02-03T09:27:49;8.00;99.90
38910;DHT22;24676;51.360;12.354;2023-02-03T09:30:33;8.10;99.90
38910;DHT22;24676;51.360;12.354;2023-02-03T09:33:17;8.10;99.90
38910;DHT22;24676;51.360;12.354;2023-02-03T09:36:02;8.20;99.90
38910;DHT22;24676;51.360;12.354;2023-02-03T09:38:47;8.20;99.90
38910;DHT22;24676;51.360;12.354;2023-02-03T09:44:56;8.20;99.90
38910;DHT22;24676;51.360;12.354;2023-02-03T09:47:43;8.20;99.90
38910;DHT22;24676;51.360;12.354;2023-02-03T09:50:32;8.20;99.90
38910;DHT22;24676;51.360;12.354;2023-02-03T09:53:39;8.20;99.90
38910;DHT22;24676;51.360;12.354;2023-02-03T09:56:33;8.20;99.90
38910;DHT22;24676;51.360;12.354;2023-02-03T09:59:19;8.30;99.90
38910;DHT22;24676;51.360;12.354;2023-02-03T10:02:28;8.20;99.90
38910;DHT22;24676;51.360;12.354;2023-02-03T10:05:17;8.20;99.90
38910;DHT22;24676;51.360;12.354;2023-02-03T10:17:23;8.20;99.90
38910;DHT22;24676;51.360;12.354;2023-02-03T10:20:23;8.20;99.90
38910;DHT22;24676;51.360;12.354;2023-02-03T10:23:11;8.20;99.90
38910;DHT22;24676;51.360;12.354;2023-02-03T10:25:56;8.30;99.90
38910;DHT22;24676;51.360;12.354;2023-02-03T10:28:55;8.30;99.90
38910;DHT22;24676;51.360;12.354;2023-02-03T10:31:41;8.30;99.90
38910;DHT22;24676;51.360;12.354;2023-02-03T10:34:26;8.30;99.90
38910;DHT22;24676;51.360;12.354;2023-02-03T10:37:27;8.30;99.90
38910;DHT22;24676;51.360;12.354;2023-02-03T10:40:14;8.20;99.90
38910;DHT22;24676;51.360;12.354;2023-02-03T10:42:58;8.20;99.90
38910;DHT22;24676;51.360;12.354;2023-02-03T10:46:02;8.20;99.90
38910;DHT22;24676;51.360;12.354;2023-02-03T10:48:47;8.20;99.90
38910;DHT22;24676;51.360;12.354;2023-02-03T10:51:41;8.20;99.90
38910;DHT22;24676;51.360;12.354;2023-02-03T10:54:34;8.20;99.90
38910;DHT22;24676;51.360;12.354;2023-02-03T10:57:18;8.20;99.90
38910;DHT22;24676;51.360;12.354;2023-02-03T11:00:22;8.20;99.90
38910;DHT22;24676;51.360;12.354;2023-02-03T11:03:15;8.30;99.90
38910;DHT22;24676;51.360;12.354;2023-02-03T11:06:05;8.30;99.90
38910;DHT22;24676;51.360;12.354;2023-02-03T11:08:51;8.30;99.90
38910;DHT22;24676;51.360;12.354;2023-02-03T11:11:35;8.30;99.90
38910;DHT22;24676;51.360;12.354;2023-02-03T11:14:24;8.30;99.90
38910;DHT22;24676;51.360;12.354;2023-02-03T11:17:17;8.30;99.90
38910;DHT22;24676;51.360;12.354;2023-02-03T11:20:14;8.20;99.90
38910;DHT22;24676;51.360;12.354;2023-02-03T11:22:59;8.10;99.90
38910;DHT22;24676;51.360;12.354;2023-02-03T11:25:43;8.00;99.90
38910;DHT22;24676;51.360;12.354;2023-02-03T11:28:28;7.90;99.90
38910;DHT22;24676;51.360;12.354;2023-02-03T11:31:24;7.90;99.90
38910;DHT22;24676;51.360;12.354;2023-02-03T11:34:18;7.80;99.90
38910;DHT22;24676;51.360;12.354;2023-02-03T11:37:31;7.80;99.90
38910;DHT22;24676;51.360;12.354;2023-02-03T11:43:22;7.80;99.90
38910;DHT22;24676;51.360;12.354;2023-02-03T11:46:06;7.80;99.90
38910;DHT22;24676;51.360;12.354;2023-02-03T11:49:07;7.80;99.90
38910;DHT22;24676;51.360;12.354;2023-02-03T11:52:11;7.80;99.90
38910;DHT22;24676;51.360;12.354;2023-02-03T12:29:50;8.00;99.90
38910;DHT22;24676;51.360;12.354;2023-02-03T12:32:39;8.00;99.90
38910;DHT22;24676;51.360;12.354;2023-02-03T12:41:13;8.00;99.90
38910;DHT22;24676;51.360;12.354;2023-02-03T12:44:00;7.90;99.90
38910;DHT22;24676;51.360;12.354;2023-02-03T12:47:22;7.90;99.90
38910;DHT22;24676;51.360;12.354;2023-02-03T12:56:33;8.10;99.90
38910;DHT22;24676;51.360;12.354;2023-02-03T12:59:24;8.10;99.90
38910;DHT22;24676;51.360;12.354;2023-02-03T13:05:23;8.10;99.90
38910;DHT22;24676;51.360;12.354;2023-02-03T13:08:15;8.20;99.90
38910;DHT22;24676;51.360;12.354;2023-02-03T13:11:35;8.20;99.90
38910;DHT22;24676;51.360;12.354;2023-02-03T13:14:30;8.20;99.90
38910;DHT22;24676;51.360;12.354;2023-02-03T13:17:25;8.20;99.90
38910;DHT22;24676;51.360;12.354;2023-02-03T13:20:19;8.20;99.90
38910;DHT22;24676;51.360;12.354;2023-02-03T13:23:05;8.20;99.90
38910;DHT22;24676;51.360;12.354;2023-02-03T13:40:56;8.00;99.90
38910;DHT22;24676;51.360;12.354;2023-02-03T13:43:46;8.10;99.90
38910;DHT22;24676;51.360;12.354;2023-02-03T13:46:34;8.10;99.90
38910;DHT22;24676;51.360;12.354;2023-02-03T13:49:30;8.10;99.90
38910;DHT22;24676;51.360;12.354;2023-02-03T13:55:37;8.00;99.90
38910;DHT22;24676;51.360;12.354;2023-02-03T13:58:28;7.90;99.90
38910;DHT22;24676;51.360;12.354;2023-02-03T14:01:37;7.90;99.90
38910;DHT22;24676;51.360;12.354;2023-02-03T14:12:57;7.20;99.90
38910;DHT22;24676;51.360;12.354;2023-02-03T14:15:42;6.90;99.90
38910;DHT22;24676;51.360;12.354;2023-02-03T14:18:34;6.70;99.90
38910;DHT22;24676;51.360;12.354;2023-02-03T14:21:28;6.60;99.90
38910;DHT22;24676;51.360;12.354;2023-02-03T14:24:19;6.50;99.90
38910;DHT22;24676;51.360;12.354;2023-02-03T14:27:07;6.50;99.90
38910;DHT22;24676;51.360;12.354;2023-02-03T14:30:06;6.50;99.90
38910;DHT22;24676;51.360;12.354;2023-02-03T14:33:01;6.50;99.90
38910;DHT22;24676;51.360;12.354;2023-02-03T14:35:48;6.50;99.90
38910;DHT22;24676;51.360;12.354;2023-02-03T14:38:32;6.60;99.90
38910;DHT22;24676;51.360;12.354;2023-02-03T14:41:17;6.60;99.90
38910;DHT22;24676;51.360;12.354;2023-02-03T14:47:34;6.60;99.90
38910;DHT22;24676;51.360;12.354;2023-02-03T14:53:57;6.50;99.90
38910;DHT22;24676;51.360;12.354;2023-02-03T14:59:49;6.50;99.90
38910;DHT22;24676;51.360;12.354;2023-02-03T15:02:33;6.50;99.90
38910;DHT22;24676;51.360;12.354;2023-02-03T15:08:03;6.60;99.90
38910;DHT22;24676;51.360;12.354;2023-02-03T15:10:47;6.50;99.90
38910;DHT22;24676;51.360;12.354;2023-02-03T15:13:31;6.50;99.90
38910;DHT22;24676;51.360;12.354;2023-02-03T15:16:19;6.60;99.90
38910;DHT22;24676;51.360;12.354;2023-02-03T15:19:13;6.70;99.90
38910;DHT22;24676;51.360;12.354;2023-02-03T15:21:58;6.70;99.90
38910;DHT22;24676;51.360;12.354;2023-02-03T15:24:42;6.80;99.90
38910;DHT22;24676;51.360;12.354;2023-02-03T15:27:29;6.80;99.90
38910;DHT22;24676;51.360;12.354;2023-02-03T15:33:12;6.90;99.90
38910;DHT22;24676;51.360;12.354;2023-02-03T15:36:01;7.00;99.90
38910;DHT22;24676;51.360;12.354;2023-02-03T15:42:16;7.10;99.90
38910;DHT22;24676;51.360;12.354;2023-02-03T15:48:47;7.10;99.90
38910;DHT22;24676;51.360;12.354;2023-02-03T15:51:15;7.10;99.90
38910;DHT22;24676;51.360;12.354;2023-02-03T15:57:04;7.20;99.90
38910;DHT22;24676;51.360;12.354;2023-02-03T16:00:00;7.20;99.90
38910;DHT22;24676;51.360;12.354;2023-02-03T16:02:45;7.30;99.90
38910;DHT22;24676;51.360;12.354;2023-02-03T16:05:34;7.30;99.90
38910;DHT22;24676;51.360;12.354;2023-02-03T16:08:27;7.40;99.90
38910;DHT22;24676;51.360;12.354;2023-02-03T16:11:33;7.50;99.90
38910;DHT22;24676;51.360;12.354;2023-02-03T16:14:32;7.50;99.90
38910;DHT22;24676;51.360;12.354;2023-02-03T16:17:24;7.50;99.90
38910;DHT22;24676;51.360;12.354;2023-02-03T16:23:04;7.50;99.90
38910;DHT22;24676;51.360;12.354;2023-02-03T16:26:16;7.40;99.90
38910;DHT22;24676;51.360;12.354;2023-02-03T16:32:17;7.50;99.90
38910;DHT22;24676;51.360;12.354;2023-02-03T16:35:21;7.40;99.90
38910;DHT22;24676;51.360;12.354;2023-02-03T16:38:24;7.40;99.90
38910;DHT22;24676;51.360;12.354;2023-02-03T16:41:27;7.30;99.90
38910;DHT22;24676;51.360;12.354;2023-02-03T16:44:30;7.40;99.90
38910;DHT22;24676;51.360;12.354;2023-02-03T16:47:33;7.40;99.90
38910;DHT22;24676;51.360;12.354;2023-02-03T16:50:36;7.40;99.90
38910;DHT22;24676;51.360;12.354;2023-02-03T16:53:39;7.40;99.90
38910;DHT22;24676;51.360;12.354;2023-02-03T16:56:23;7.40;99.90
38910;DHT22;24676;51.360;12.354;2023-02-03T16:59:07;7.40;99.90
38910;DHT22;24676;51.360;12.354;2023-02-03T17:01:51;7.30;99.90
38910;DHT22;24676;51.360;12.354;2023-02-03T17:04:36;7.40;99.90
38910;DHT22;24676;51.360;12.354;2023-02-03T17:07:21;7.30;99.90
38910;DHT22;24676;51.360;12.354;2023-02-03T17:10:06;7.30;99.90
38910;DHT22;24676;51.360;12.354;2023-02-03T17:12:51;7.30;99.90
38910;DHT22;24676;51.360;12.354;2023-02-03T17:15:41;7.40;99.90
38910;DHT22;24676;51.360;12.354;2023-02-03T17:18:26;7.40;99.90
38910;DHT22;24676;51.360;12.354;2023-02-03T17:21:14;7.40;99.90
38910;DHT22;24676;51.360;12.354;2023-02-03T17:23:59;7.40;99.90
38910;DHT22;24676;51.360;12.354;2023-02-03T17:26:43;7.40;99.90
38910;DHT22;24676;51.360;12.354;2023-02-03T17:29:28;7.50;99.90
38910;DHT22;24676;51.360;12.354;2023-02-03T17:32:12;7.50;99.90
38910;DHT22;24676;51.360;12.354;2023-02-03T17:34:58;7.50;99.90
38910;DHT22;24676;51.360;12.354;2023-02-03T17:37:42;7.50;99.90
38910;DHT22;24676;51.360;12.354;2023-02-03T17:40:29;7.50;99.90
38910;DHT22;24676;51.360;12.354;2023-02-03T17:43:13;7.50;99.90
38910;DHT22;24676;51.360;12.354;2023-02-03T17:45:57;7.50;99.90
38910;DHT22;24676;51.360;12.354;2023-02-03T17:48:43;7.40;99.90
38910;DHT22;24676;51.360;12.354;2023-02-03T17:51:27;7.30;99.90
38910;DHT22;24676;51.360;12.354;2023-02-03T17:54:14;7.30;99.90
38910;DHT22;24676;51.360;12.354;2023-02-03T17:56:59;7.30;99.90
38910;DHT22;24676;51.360;12.354;2023-02-03T17:59:45;7.30;99.90
38910;DHT22;24676;51.360;12.354;2023-02-03T18:02:30;7.20;99.90
38910;DHT22;24676;51.360;12.354;2023-02-03T18:05:14;7.20;99.90
38910;DHT22;24676;51.360;12.354;2023-02-03T18:07:58;7.10;99.90
38910;DHT22;24676;51.360;12.354;2023-02-03T18:10:43;7.10;99.90
38910;DHT22;24676;51.360;12.354;2023-02-03T18:13:28;7.10;99.90
38910;DHT22;24676;51.360;12.354;2023-02-03T18:16:18;7.00;99.90
38910;DHT22;24676;51.360;12.354;2023-02-03T18:19:07;7.00;99.90
38910;DHT22;24676;51.360;12.354;2023-02-03T18:21:52;7.00;99.90
38910;DHT22;24676;51.360;12.354;2023-02-03T18:24:36;7.00;99.90
38910;DHT22;24676;51.360;12.354;2023-02-03T18:27:22;7.10;99.90
38910;DHT22;24676;51.360;12.354;2023-02-03T18:30:07;7.10;99.90
38910;DHT22;24676;51.360;12.354;2023-02-03T18:32:54;7.20;99.90
38910;DHT22;24676;51.360;12.354;2023-02-03T18:35:39;7.10;99.90
38910;DHT22;24676;51.360;12.354;2023-02-03T18:38:24;7.20;99.90
38910;DHT22;24676;51.360;12.354;2023-02-03T18:41:18;7.10;99.90
38910;DHT22;24676;51.360;12.354;2023-02-03T18:44:03;7.10;99.90
38910;DHT22;24676;51.360;12.354;2023-02-03T18:46:47;7.10;99.90
38910;DHT22;24676;51.360;12.354;2023-02-03T18:49:35;7.10;99.90
38910;DHT22;24676;51.360;12.354;2023-02-03T18:52:19;7.10;99.90
38910;DHT22;24676;51.360;12.354;2023-02-03T18:55:04;7.10;99.90
38910;DHT22;24676;51.360;12.354;2023-02-03T18:57:48;7.10;99.90
38910;DHT22;24676;51.360;12.354;2023-02-03T19:00:32;7.10;99.90
38910;DHT22;24676;51.360;12.354;2023-02-03T19:03:17;7.10;99.90
38910;DHT22;24676;51.360;12.354;2023-02-03T19:06:08;7.10;99.90
38910;DHT22;24676;51.360;12.354;2023-02-03T19:08:53;7.10;99.90
38910;DHT22;24676;51.360;12.354;2023-02-03T19:11:37;7.20;99.90
38910;DHT22;24676;51.360;12.354;2023-02-03T19:14:21;7.20;99.90
38910;DHT22;24676;51.360;12.354;2023-02-03T19:17:07;7.10;99.90
38910;DHT22;24676;51.360;12.354;2023-02-03T19:19:53;7.10;99.90
38910;DHT22;24676;51.360;12.354;2023-02-03T19:22:37;7.10;99.90
38910;DHT22;24676;51.360;12.354;2023-02-03T19:25:21;7.10;99.90
38910;DHT22;24676;51.360;12.354;2023-02-03T19:28:06;7.00;99.90
38910;DHT22;24676;51.360;12.354;2023-02-03T19:30:51;6.90;99.90
38910;DHT22;24676;51.360;12.354;2023-02-03T19:33:35;6.90;99.90
38910;DHT22;24676;51.360;12.354;2023-02-03T19:36:20;6.80;99.90
38910;DHT22;24676;51.360;12.354;2023-02-03T19:39:04;6.80;99.90
38910;DHT22;24676;51.360;12.354;2023-02-03T19:41:49;6.80;99.90
38910;DHT22;24676;51.360;12.354;2023-02-03T19:44:34;6.70;99.90
38910;DHT22;24676;51.360;12.354;2023-02-03T19:47:20;6.80;99.90
38910;DHT22;24676;51.360;12.354;2023-02-03T19:50:04;6.80;99.90
38910;DHT22;24676;51.360;12.354;2023-02-03T19:52:49;6.80;99.90
38910;DHT22;24676;51.360;12.354;2023-02-03T19:55:33;6.90;99.90
38910;DHT22;24676;51.360;12.354;2023-02-03T19:58:17;6.90;99.90